createdAt,value
2023-05-10T00:02:07.385Z,4.50
2023-05-10T00:06:10.780Z,7.15
2023-05-10T00:10:17.208Z,4.28
2023-05-10T00:14:24.699Z,4.50
2023-05-10T00:18:27.910Z,6.95
2023-05-10T00:22:34.254Z,9.23
2023-05-10T00:26:41.839Z,6.10
2023-05-10T00:30:44.835Z,5.40
2023-05-10T00:34:50.149Z,4.82
2023-05-10T00:38:58.391Z,4.78
2023-05-10T00:43:10.329Z,5.10
2023-05-10T00:47:16.818Z,4.85
2023-05-10T00:51:19.948Z,4.57
2023-05-10T00:55:24.893Z,4.43
2023-05-10T00:59:29.442Z,6.53
2023-05-10T01:03:33.030Z,5.95
2023-05-10T01:07:39.439Z,5.55
2023-05-10T01:11:42.601Z,7.93
2023-05-10T01:15:48.820Z,6.30
2023-05-10T01:19:58.113Z,8.05
2023-05-10T01:24:23.338Z,7.10
2023-05-10T01:28:49.497Z,5.20
2023-05-10T01:32:59.918Z,6.07
2023-05-10T01:37:09.932Z,5.68
2023-05-10T01:41:20.738Z,7.40
2023-05-10T01:45:29.738Z,5.97
2023-05-10T01:49:41.895Z,7.95
2023-05-10T01:53:48.634Z,6.88
2023-05-10T01:57:59.339Z,8.43
2023-05-10T02:02:05.235Z,7.43
2023-05-10T02:06:17.390Z,9.02
2023-05-10T02:10:21.823Z,6.93
2023-05-10T02:14:26.235Z,7.13
2023-05-10T02:18:29.526Z,6.93
2023-05-10T02:22:34.951Z,7.13
2023-05-10T02:26:42.390Z,6.72
2023-05-10T02:30:45.739Z,9.00
2023-05-10T02:34:52.821Z,8.75
2023-05-10T02:38:58.262Z,12.15
2023-05-10T02:43:03.652Z,10.57
2023-05-10T02:47:08.530Z,7.18
2023-05-10T02:51:22.407Z,10.93
2023-05-10T02:55:33.425Z,10.90
2023-05-10T02:59:41.817Z,7.40
2023-05-10T03:03:45.942Z,10.18
2023-05-10T03:07:50.239Z,7.20
2023-05-10T03:12:03.165Z,10.45
2023-05-10T03:16:13.852Z,9.63
2023-05-10T03:20:27.176Z,9.85
2023-05-10T03:24:30.978Z,10.43
2023-05-10T03:28:37.196Z,10.30
2023-05-10T03:32:40.718Z,12.43
2023-05-10T03:36:45.741Z,14.65
2023-05-10T03:40:51.903Z,14.60
2023-05-10T03:44:56.412Z,12.98
2023-05-10T03:49:01.769Z,11.35
2023-05-10T03:53:05.910Z,12.48
2023-05-10T03:57:09.459Z,13.15
2023-05-10T04:01:15.079Z,17.75
2023-05-10T04:05:19.001Z,13.73
2023-05-10T04:09:31.545Z,14.82
2023-05-10T04:13:42.394Z,20.70
2023-05-10T04:17:46.994Z,17.52
2023-05-10T04:21:50.128Z,16.98
2023-05-10T04:25:54.837Z,20.25
2023-05-10T04:29:57.861Z,15.57
2023-05-10T04:34:03.598Z,14.27
2023-05-10T04:38:06.760Z,23.13
2023-05-10T04:42:12.493Z,16.95
2023-05-10T04:46:15.543Z,22.77
2023-05-10T04:50:25.117Z,16.88
2023-05-10T04:54:30.639Z,16.80
2023-05-10T04:58:35.628Z,17.15
2023-05-10T05:02:38.750Z,19.30
2023-05-10T05:06:45.931Z,18.75
2023-05-10T05:10:55.240Z,17.17
2023-05-10T05:14:58.483Z,18.05
2023-05-10T05:19:03.909Z,22.73
2023-05-10T05:23:09.295Z,18.65
2023-05-10T05:27:18.612Z,18.50
2023-05-10T05:31:22.811Z,19.02
2023-05-10T05:35:26.233Z,22.30
2023-05-10T05:39:32.855Z,19.33
2023-05-10T05:43:38.045Z,19.55
2023-05-10T05:47:41.504Z,14.13
2023-05-10T05:51:45.769Z,12.32
2023-05-10T05:56:00.361Z,8.68
2023-05-10T06:00:04.957Z,3.75
2023-05-10T06:04:10.405Z,3.75
2023-05-10T06:08:13.574Z,2.15
2023-05-10T06:12:19.232Z,1.60
2023-05-10T06:16:23.831Z,1.67
2023-05-10T06:20:32.525Z,1.20
2023-05-10T06:24:39.008Z,1.63
2023-05-10T06:28:43.446Z,1.48
2023-05-10T06:32:48.104Z,1.20
2023-05-10T06:36:53.357Z,1.30
2023-05-10T06:40:56.393Z,4.22
2023-05-10T06:45:02.113Z,1.20
2023-05-10T06:49:07.650Z,1.40
2023-05-10T06:53:19.354Z,1.15
2023-05-10T06:57:31.183Z,1.08
2023-05-10T07:01:37.416Z,1.48
2023-05-10T07:05:42.533Z,2.08
2023-05-10T07:09:45.978Z,1.83
2023-05-10T07:13:51.881Z,1.30
2023-05-10T07:17:56.644Z,1.42
2023-05-10T07:22:00.060Z,1.20
2023-05-10T07:26:07.084Z,1.20
2023-05-10T07:30:11.214Z,1.30
2023-05-10T07:34:15.793Z,1.30
2023-05-10T07:38:19.604Z,1.45
2023-05-10T07:42:24.636Z,2.30
2023-05-10T07:46:27.716Z,1.70
2023-05-10T07:50:44.889Z,1.50
2023-05-10T07:54:47.890Z,1.48
2023-05-10T07:58:59.002Z,1.50
2023-05-10T08:03:02.279Z,2.13
2023-05-10T08:07:07.010Z,2.38
2023-05-10T08:11:10.201Z,1.50
2023-05-10T08:15:13.559Z,4.03
2023-05-10T08:19:20.105Z,1.88
2023-05-10T08:23:24.532Z,1.30
2023-05-10T08:27:30.225Z,1.50
2023-05-10T08:31:36.354Z,1.70
2023-05-10T08:35:39.470Z,1.30
2023-05-10T08:39:44.329Z,1.30
2023-05-10T08:43:48.182Z,1.30
2023-05-10T08:47:52.034Z,1.80
2023-05-10T08:51:57.362Z,1.70
2023-05-10T08:56:04.557Z,1.92
2023-05-10T09:00:14.898Z,3.30
2023-05-10T09:04:18.525Z,3.55
2023-05-10T09:08:23.046Z,2.05
2023-05-10T09:12:32.997Z,2.47
2023-05-10T09:16:36.094Z,1.80
2023-05-10T09:20:42.349Z,1.70
2023-05-10T09:24:48.609Z,1.70
2023-05-10T09:28:58.118Z,2.67
2023-05-10T09:33:02.527Z,1.50
2023-05-10T09:37:09.308Z,4.88
2023-05-10T09:41:18.687Z,1.98
2023-05-10T09:45:24.060Z,1.58
2023-05-10T09:49:31.862Z,1.35
2023-05-10T09:53:41.926Z,2.47
2023-05-10T09:57:45.020Z,2.05
2023-05-10T10:01:53.804Z,2.15
2023-05-10T10:06:00.575Z,1.30
2023-05-10T10:10:05.818Z,1.60
2023-05-10T10:14:08.809Z,1.23
2023-05-10T10:18:18.994Z,2.15
2023-05-10T10:22:22.291Z,1.05
2023-05-10T10:26:26.479Z,1.08
2023-05-10T10:30:42.371Z,0.98
2023-05-10T10:34:48.500Z,1.05
2023-05-10T10:39:07.470Z,1.38
2023-05-10T10:43:29.650Z,1.30
2023-05-10T10:47:34.309Z,1.10
2023-05-10T10:51:41.004Z,4.43
2023-05-10T10:55:54.523Z,3.15
2023-05-10T11:00:24.339Z,1.10
2023-05-10T11:04:27.595Z,2.28
2023-05-10T11:08:35.106Z,1.70
2023-05-10T11:12:53.744Z,1.00
2023-05-10T11:16:59.625Z,1.10
2023-05-10T11:21:06.286Z,1.25
2023-05-10T11:25:14.914Z,1.25
2023-05-10T11:29:18.987Z,1.25
2023-05-10T11:33:22.690Z,1.10
2023-05-10T11:37:25.889Z,1.02
2023-05-10T11:41:31.752Z,1.20
2023-05-10T11:45:38.128Z,1.50
2023-05-10T11:49:48.028Z,1.20
2023-05-10T11:53:55.166Z,1.85
2023-05-10T11:58:14.204Z,1.50
2023-05-10T12:02:17.923Z,1.95
2023-05-10T12:06:23.655Z,1.20
2023-05-10T12:10:36.608Z,3.33
2023-05-10T12:14:43.544Z,2.17
2023-05-10T12:18:49.996Z,1.58
2023-05-10T12:23:00.197Z,3.25
2023-05-10T12:27:11.419Z,2.10
2023-05-10T12:31:16.366Z,2.28
2023-05-10T12:35:24.950Z,3.33
2023-05-10T12:39:28.140Z,2.40
2023-05-10T12:43:33.142Z,2.25
2023-05-10T12:47:43.083Z,3.55
2023-05-10T12:51:47.123Z,2.67
2023-05-10T12:55:50.275Z,4.78
2023-05-10T12:59:55.337Z,4.88
2023-05-10T13:04:01.554Z,4.63
2023-05-10T13:08:07.359Z,4.47
2023-05-10T13:12:11.633Z,2.22
2023-05-10T13:16:17.656Z,2.75
2023-05-10T13:20:23.409Z,2.80
2023-05-10T13:24:26.749Z,2.40
2023-05-10T13:28:33.685Z,1.83
2023-05-10T13:32:38.374Z,1.90
2023-05-10T13:36:46.044Z,5.15
2023-05-10T13:40:49.394Z,5.20
2023-05-10T13:44:52.703Z,2.63
2023-05-10T13:48:55.839Z,3.03
2023-05-10T13:53:06.517Z,2.08
2023-05-10T13:57:09.971Z,2.40
2023-05-10T14:01:17.568Z,3.63
2023-05-10T14:05:30.716Z,4.15
2023-05-10T14:09:35.581Z,3.15
2023-05-10T14:13:38.558Z,2.92
2023-05-10T14:17:41.736Z,3.53
2023-05-10T14:21:45.468Z,2.35
2023-05-10T14:25:49.966Z,6.07
2023-05-10T14:29:57.110Z,2.50
2023-05-10T14:34:00.507Z,3.03
2023-05-10T14:38:04.732Z,1.63
2023-05-10T14:42:10.323Z,3.15
2023-05-10T14:46:13.823Z,2.05
2023-05-10T14:50:32.315Z,2.10
2023-05-10T14:54:42.355Z,2.75
2023-05-10T14:58:48.792Z,5.03
2023-05-10T15:02:51.991Z,4.65
2023-05-10T15:07:02.869Z,3.35
2023-05-10T15:11:06.334Z,20.63
2023-05-10T15:15:22.166Z,4.95
2023-05-10T15:19:28.468Z,5.50
2023-05-10T15:23:31.973Z,4.40
2023-05-10T15:27:36.871Z,13.23
2023-05-10T15:31:41.503Z,7.40
2023-05-10T15:35:47.415Z,6.35
2023-05-10T15:39:52.929Z,4.07
2023-05-10T15:43:56.657Z,3.83
2023-05-10T15:48:01.334Z,6.05
2023-05-10T15:52:04.411Z,7.78
2023-05-10T15:56:08.467Z,7.65
2023-05-10T16:00:16.742Z,7.00
2023-05-10T16:04:24.469Z,5.13
2023-05-10T16:08:30.777Z,4.57
2023-05-10T16:12:37.503Z,6.30
2023-05-10T16:16:41.375Z,8.52
2023-05-10T16:20:46.077Z,5.22
2023-05-10T16:24:53.650Z,4.18
2023-05-10T16:28:58.453Z,3.88
2023-05-10T16:33:02.645Z,10.82
2023-05-10T16:37:07.364Z,26.75
2023-05-10T16:41:12.266Z,8.52
2023-05-10T16:45:16.454Z,9.55
2023-05-10T16:49:19.876Z,28.15
2023-05-10T16:53:24.281Z,8.02
2023-05-10T16:57:27.334Z,6.57
2023-05-10T17:01:35.520Z,8.05
2023-05-10T17:05:38.902Z,6.32
2023-05-10T17:09:44.092Z,9.00
2023-05-10T17:13:52.142Z,12.25
2023-05-10T17:17:55.346Z,9.00
2023-05-10T17:21:59.137Z,7.78
2023-05-10T17:26:05.685Z,10.85
2023-05-10T17:30:10.489Z,16.65
2023-05-10T17:34:15.042Z,10.60
2023-05-10T17:38:18.075Z,8.65
2023-05-10T17:42:23.054Z,4.90
2023-05-10T17:46:29.910Z,5.38
2023-05-10T17:50:33.151Z,6.65
2023-05-10T17:54:36.208Z,3.60
2023-05-10T17:58:41.891Z,9.50
2023-05-10T18:02:47.237Z,5.97
2023-05-10T18:06:51.361Z,6.22
2023-05-10T18:10:55.701Z,8.93
2023-05-10T18:15:01.127Z,5.78
2023-05-10T18:24:37.500Z,7.90
2023-05-10T18:29:08.026Z,7.28
2023-05-10T18:33:17.704Z,7.30
2023-05-10T18:37:21.687Z,9.32
2023-05-10T18:41:53.289Z,10.13
2023-05-10T18:51:14.526Z,11.05
2023-05-10T18:55:21.686Z,9.85
2023-05-10T18:59:31.713Z,7.97
2023-05-10T19:03:40.121Z,6.15
2023-05-10T19:07:47.014Z,10.32
2023-05-10T19:11:56.572Z,8.48
2023-05-10T19:16:13.406Z,13.73
2023-05-10T19:20:18.387Z,7.47
2023-05-10T19:24:26.045Z,15.35
2023-05-10T19:28:29.378Z,13.55
2023-05-10T19:32:32.764Z,10.55
2023-05-10T19:36:36.059Z,11.95
2023-05-10T19:40:40.480Z,13.02
2023-05-10T19:44:46.069Z,9.85
2023-05-10T19:48:49.075Z,9.73
2023-05-10T19:52:52.500Z,8.35
2023-05-10T19:56:56.929Z,9.98
2023-05-10T20:01:02.594Z,7.47
2023-05-10T20:05:10.063Z,9.48
2023-05-10T20:09:14.612Z,6.70
2023-05-10T20:13:19.049Z,11.07
2023-05-10T20:17:25.541Z,9.02
2023-05-10T20:21:33.576Z,8.18
2023-05-10T21:01:49.130Z,9.93
2023-05-10T21:11:52.956Z,10.20
2023-05-10T21:25:53.625Z,12.98
2023-05-10T21:29:56.650Z,11.40
2023-05-10T21:34:03.760Z,9.43
2023-05-10T21:38:12.398Z,10.60
2023-05-10T21:42:15.435Z,13.80
2023-05-10T21:46:21.615Z,13.45
2023-05-10T21:50:26.436Z,9.95
2023-05-10T21:54:33.167Z,10.13
2023-05-10T21:58:39.382Z,14.15
2023-05-10T22:02:47.133Z,12.13
2023-05-10T22:06:52.001Z,15.20
2023-05-10T22:10:55.447Z,11.40
2023-05-10T22:15:10.450Z,10.23
2023-05-10T22:19:14.075Z,12.02
2023-05-10T22:23:18.450Z,12.90
2023-05-10T22:27:21.814Z,23.77
2023-05-10T22:31:24.822Z,13.38
2023-05-10T22:35:27.915Z,12.43
2023-05-10T22:39:34.037Z,17.15
2023-05-10T22:43:39.396Z,21.15
2023-05-10T22:47:45.330Z,13.48
2023-05-10T22:51:48.345Z,15.75
2023-05-10T22:55:54.075Z,16.08
2023-05-10T22:59:57.132Z,14.60
2023-05-10T23:04:00.208Z,15.02
2023-05-10T23:08:06.542Z,15.48
2023-05-10T23:12:13.671Z,14.77
2023-05-10T23:16:19.856Z,14.63
2023-05-10T23:20:23.137Z,19.25
2023-05-10T23:24:27.005Z,13.50
2023-05-10T23:28:35.932Z,19.75
2023-05-10T23:32:40.015Z,17.35
2023-05-10T23:36:43.544Z,12.73
2023-05-10T23:40:52.325Z,12.25
2023-05-10T23:44:57.172Z,16.45
2023-05-10T23:49:00.205Z,15.48
2023-05-10T23:53:07.251Z,14.25
2023-05-10T23:57:14.484Z,14.60
